sensor_id;sensor_type;location;lat;lon;timestamp;P1;durP1;ratioP1;P2;durP2;ratioP2
25657;SDS011;13517;59.320;18.042;2022-11-20T00:02:17;17.88;;;5.28;;
25657;SDS011;13517;59.320;18.042;2022-11-20T00:04:42;14.43;;;5.30;;
25657;SDS011;13517;59.320;18.042;2022-11-20T00:07:07;19.95;;;6.47;;
25657;SDS011;13517;59.320;18.042;2022-11-20T00:09:33;17.30;;;5.72;;
25657;SDS011;13517;59.320;18.042;2022-11-20T00:11:58;14.82;;;6.10;;
25657;SDS011;13517;59.320;18.042;2022-11-20T00:14:23;25.92;;;6.72;;
25657;SDS011;13517;59.320;18.042;2022-11-20T00:16:49;18.92;;;6.20;;
25657;SDS011;13517;59.320;18.042;2022-11-20T00:19:14;33.15;;;9.05;;
25657;SDS011;13517;59.320;18.042;2022-11-20T00:21:40;16.58;;;6.72;;
25657;SDS011;13517;59.320;18.042;2022-11-20T00:24:07;14.43;;;7.00;;
25657;SDS011;13517;59.320;18.042;2022-11-20T00:26:34;14.38;;;5.38;;
25657;SDS011;13517;59.320;18.042;2022-11-20T00:29:00;13.63;;;5.95;;
25657;SDS011;13517;59.320;18.042;2022-11-20T00:31:26;24.98;;;8.43;;
25657;SDS011;13517;59.320;18.042;2022-11-20T00:33:52;14.48;;;5.88;;
25657;SDS011;13517;59.320;18.042;2022-11-20T00:36:19;17.40;;;5.85;;
25657;SDS011;13517;59.320;18.042;2022-11-20T00:38:46;14.60;;;5.97;;
25657;SDS011;13517;59.320;18.042;2022-11-20T00:41:13;14.25;;;6.68;;
25657;SDS011;13517;59.320;18.042;2022-11-20T00:43:39;15.15;;;6.25;;
25657;SDS011;13517;59.320;18.042;2022-11-20T00:46:06;14.65;;;6.47;;
25657;SDS011;13517;59.320;18.042;2022-11-20T00:48:35;17.33;;;6.35;;
25657;SDS011;13517;59.320;18.042;2022-11-20T00:51:01;12.98;;;5.63;;
25657;SDS011;13517;59.320;18.042;2022-11-20T00:53:26;12.68;;;6.18;;
25657;SDS011;13517;59.320;18.042;2022-11-20T00:56:00;12.15;;;5.63;;
25657;SDS011;13517;59.320;18.042;2022-11-20T00:58:31;13.65;;;5.90;;
25657;SDS011;13517;59.320;18.042;2022-11-20T01:01:01;20.13;;;7.30;;
25657;SDS011;13517;59.320;18.042;2022-11-20T01:03:30;11.05;;;5.30;;
25657;SDS011;13517;59.320;18.042;2022-11-20T01:06:05;12.48;;;6.20;;
25657;SDS011;13517;59.320;18.042;2022-11-20T01:08:34;12.95;;;6.63;;
25657;SDS011;13517;59.320;18.042;2022-11-20T01:11:11;11.45;;;5.82;;
25657;SDS011;13517;59.320;18.042;2022-11-20T01:13:39;15.52;;;6.07;;
25657;SDS011;13517;59.320;18.042;2022-11-20T01:16:16;11.90;;;6.45;;
25657;SDS011;13517;59.320;18.042;2022-11-20T01:18:46;11.75;;;5.43;;
25657;SDS011;13517;59.320;18.042;2022-11-20T01:21:15;13.90;;;6.57;;
25657;SDS011;13517;59.320;18.042;2022-11-20T01:23:45;14.10;;;6.13;;
25657;SDS011;13517;59.320;18.042;2022-11-20T01:26:13;11.50;;;5.68;;
25657;SDS011;13517;59.320;18.042;2022-11-20T01:28:49;12.13;;;5.85;;
25657;SDS011;13517;59.320;18.042;2022-11-20T01:31:15;11.52;;;4.82;;
25657;SDS011;13517;59.320;18.042;2022-11-20T01:33:53;8.73;;;5.68;;
25657;SDS011;13517;59.320;18.042;2022-11-20T01:36:20;12.70;;;5.70;;
25657;SDS011;13517;59.320;18.042;2022-11-20T01:38:48;11.02;;;5.63;;
25657;SDS011;13517;59.320;18.042;2022-11-20T01:41:16;10.18;;;5.03;;
25657;SDS011;13517;59.320;18.042;2022-11-20T01:44:01;7.32;;;4.75;;
25657;SDS011;13517;59.320;18.042;2022-11-20T01:46:27;10.32;;;5.03;;
25657;SDS011;13517;59.320;18.042;2022-11-20T01:48:54;8.90;;;5.50;;
25657;SDS011;13517;59.320;18.042;2022-11-20T01:53:59;11.98;;;5.22;;
25657;SDS011;13517;59.320;18.042;2022-11-20T01:56:28;13.55;;;5.30;;
25657;SDS011;13517;59.320;18.042;2022-11-20T01:58:56;15.25;;;5.25;;
25657;SDS011;13517;59.320;18.042;2022-11-20T02:01:25;11.80;;;5.72;;
25657;SDS011;13517;59.320;18.042;2022-11-20T02:03:51;8.70;;;4.50;;
25657;SDS011;13517;59.320;18.042;2022-11-20T02:09:20;10.75;;;5.38;;
25657;SDS011;13517;59.320;18.042;2022-11-20T02:11:45;14.00;;;5.28;;
25657;SDS011;13517;59.320;18.042;2022-11-20T02:14:11;10.20;;;5.80;;
25657;SDS011;13517;59.320;18.042;2022-11-20T02:16:37;12.57;;;5.85;;
25657;SDS011;13517;59.320;18.042;2022-11-20T02:19:09;14.65;;;5.57;;
25657;SDS011;13517;59.320;18.042;2022-11-20T02:24:29;12.60;;;5.32;;
25657;SDS011;13517;59.320;18.042;2022-11-20T02:26:59;13.13;;;5.93;;
25657;SDS011;13517;59.320;18.042;2022-11-20T02:29:37;7.28;;;4.70;;
25657;SDS011;13517;59.320;18.042;2022-11-20T02:32:06;11.93;;;5.40;;
25657;SDS011;13517;59.320;18.042;2022-11-20T02:34:42;9.88;;;4.32;;
25657;SDS011;13517;59.320;18.042;2022-11-20T02:37:07;9.38;;;4.93;;
25657;SDS011;13517;59.320;18.042;2022-11-20T02:39:33;8.30;;;5.13;;
25657;SDS011;13517;59.320;18.042;2022-11-20T02:42:00;9.77;;;4.72;;
25657;SDS011;13517;59.320;18.042;2022-11-20T02:44:26;8.13;;;4.82;;
25657;SDS011;13517;59.320;18.042;2022-11-20T02:46:51;9.40;;;5.20;;
25657;SDS011;13517;59.320;18.042;2022-11-20T02:49:16;9.05;;;5.70;;
25657;SDS011;13517;59.320;18.042;2022-11-20T02:51:42;8.45;;;4.78;;
25657;SDS011;13517;59.320;18.042;2022-11-20T02:54:07;11.32;;;5.78;;
25657;SDS011;13517;59.320;18.042;2022-11-20T02:56:33;8.02;;;4.07;;
25657;SDS011;13517;59.320;18.042;2022-11-20T02:58:58;7.47;;;4.53;;
25657;SDS011;13517;59.320;18.042;2022-11-20T03:01:23;9.25;;;4.75;;
25657;SDS011;13517;59.320;18.042;2022-11-20T03:03:49;10.40;;;4.72;;
25657;SDS011;13517;59.320;18.042;2022-11-20T03:06:17;10.15;;;5.30;;
25657;SDS011;13517;59.320;18.042;2022-11-20T03:08:43;8.30;;;4.47;;
25657;SDS011;13517;59.320;18.042;2022-11-20T03:11:09;11.15;;;4.93;;
25657;SDS011;13517;59.320;18.042;2022-11-20T03:13:36;8.20;;;4.40;;
25657;SDS011;13517;59.320;18.042;2022-11-20T03:16:08;10.60;;;5.57;;
25657;SDS011;13517;59.320;18.042;2022-11-20T03:21:01;12.23;;;4.53;;
25657;SDS011;13517;59.320;18.042;2022-11-20T03:23:28;7.03;;;4.53;;
25657;SDS011;13517;59.320;18.042;2022-11-20T03:25:54;12.43;;;5.10;;
25657;SDS011;13517;59.320;18.042;2022-11-20T03:28:20;11.85;;;5.57;;
25657;SDS011;13517;59.320;18.042;2022-11-20T03:30:45;10.73;;;5.38;;
25657;SDS011;13517;59.320;18.042;2022-11-20T03:33:11;9.40;;;5.03;;
25657;SDS011;13517;59.320;18.042;2022-11-20T03:35:36;11.95;;;5.10;;
25657;SDS011;13517;59.320;18.042;2022-11-20T03:38:01;13.55;;;5.13;;
25657;SDS011;13517;59.320;18.042;2022-11-20T03:40:27;9.23;;;4.65;;
25657;SDS011;13517;59.320;18.042;2022-11-20T03:42:52;11.02;;;5.20;;
25657;SDS011;13517;59.320;18.042;2022-11-20T03:45:18;11.57;;;5.25;;
25657;SDS011;13517;59.320;18.042;2022-11-20T03:47:44;10.32;;;4.60;;
25657;SDS011;13517;59.320;18.042;2022-11-20T03:50:11;8.48;;;5.13;;
25657;SDS011;13517;59.320;18.042;2022-11-20T03:52:38;9.95;;;5.13;;
25657;SDS011;13517;59.320;18.042;2022-11-20T03:55:04;8.30;;;4.43;;
25657;SDS011;13517;59.320;18.042;2022-11-20T03:57:30;11.73;;;4.78;;
25657;SDS011;13517;59.320;18.042;2022-11-20T03:59:56;8.85;;;4.90;;
25657;SDS011;13517;59.320;18.042;2022-11-20T04:02:21;8.23;;;4.57;;
25657;SDS011;13517;59.320;18.042;2022-11-20T04:04:46;10.75;;;4.80;;
25657;SDS011;13517;59.320;18.042;2022-11-20T04:07:12;13.70;;;4.70;;
25657;SDS011;13517;59.320;18.042;2022-11-20T04:09:37;13.57;;;5.18;;
25657;SDS011;13517;59.320;18.042;2022-11-20T04:12:03;9.23;;;4.50;;
25657;SDS011;13517;59.320;18.042;2022-11-20T04:14:28;6.68;;;3.97;;
25657;SDS011;13517;59.320;18.042;2022-11-20T04:16:54;8.40;;;4.47;;
25657;SDS011;13517;59.320;18.042;2022-11-20T04:19:19;6.88;;;3.85;;
25657;SDS011;13517;59.320;18.042;2022-11-20T04:21:44;7.15;;;3.90;;
25657;SDS011;13517;59.320;18.042;2022-11-20T04:24:10;6.70;;;4.13;;
25657;SDS011;13517;59.320;18.042;2022-11-20T04:26:36;7.60;;;4.00;;
25657;SDS011;13517;59.320;18.042;2022-11-20T04:29:02;5.55;;;3.45;;
25657;SDS011;13517;59.320;18.042;2022-11-20T04:31:29;6.93;;;3.78;;
25657;SDS011;13517;59.320;18.042;2022-11-20T04:34:03;5.45;;;2.97;;
25657;SDS011;13517;59.320;18.042;2022-11-20T04:38:57;5.15;;;3.30;;
25657;SDS011;13517;59.320;18.042;2022-11-20T04:41:25;5.30;;;3.17;;
25657;SDS011;13517;59.320;18.042;2022-11-20T04:43:52;4.90;;;3.17;;
25657;SDS011;13517;59.320;18.042;2022-11-20T04:46:24;6.55;;;3.35;;
25657;SDS011;13517;59.320;18.042;2022-11-20T04:48:51;4.80;;;3.05;;
25657;SDS011;13517;59.320;18.042;2022-11-20T04:51:16;4.88;;;2.75;;
25657;SDS011;13517;59.320;18.042;2022-11-20T04:53:42;4.45;;;2.88;;
25657;SDS011;13517;59.320;18.042;2022-11-20T04:56:08;4.60;;;3.08;;
25657;SDS011;13517;59.320;18.042;2022-11-20T04:58:35;6.10;;;3.60;;
25657;SDS011;13517;59.320;18.042;2022-11-20T05:03:27;4.38;;;2.72;;
25657;SDS011;13517;59.320;18.042;2022-11-20T05:05:53;5.45;;;2.60;;
25657;SDS011;13517;59.320;18.042;2022-11-20T05:08:18;4.50;;;2.90;;
25657;SDS011;13517;59.320;18.042;2022-11-20T05:10:43;4.57;;;2.58;;
25657;SDS011;13517;59.320;18.042;2022-11-20T05:13:09;5.03;;;3.10;;
25657;SDS011;13517;59.320;18.042;2022-11-20T05:15:34;4.97;;;2.90;;
25657;SDS011;13517;59.320;18.042;2022-11-20T05:17:59;10.32;;;3.28;;
25657;SDS011;13517;59.320;18.042;2022-11-20T05:20:25;7.18;;;3.20;;
25657;SDS011;13517;59.320;18.042;2022-11-20T05:22:50;4.57;;;2.85;;
25657;SDS011;13517;59.320;18.042;2022-11-20T05:25:15;8.85;;;3.60;;
25657;SDS011;13517;59.320;18.042;2022-11-20T05:27:41;12.43;;;3.38;;
25657;SDS011;13517;59.320;18.042;2022-11-20T05:30:06;6.50;;;3.05;;
25657;SDS011;13517;59.320;18.042;2022-11-20T05:32:32;4.97;;;3.28;;
25657;SDS011;13517;59.320;18.042;2022-11-20T05:34:58;3.67;;;2.80;;
25657;SDS011;13517;59.320;18.042;2022-11-20T05:37:23;5.32;;;3.10;;
25657;SDS011;13517;59.320;18.042;2022-11-20T05:39:49;4.05;;;2.90;;
25657;SDS011;13517;59.320;18.042;2022-11-20T05:42:14;4.40;;;2.95;;
25657;SDS011;13517;59.320;18.042;2022-11-20T05:44:55;5.32;;;3.20;;
25657;SDS011;13517;59.320;18.042;2022-11-20T05:47:21;4.03;;;2.72;;
25657;SDS011;13517;59.320;18.042;2022-11-20T05:49:46;6.05;;;3.08;;
25657;SDS011;13517;59.320;18.042;2022-11-20T05:52:12;3.90;;;2.65;;
25657;SDS011;13517;59.320;18.042;2022-11-20T05:54:37;5.85;;;2.90;;
25657;SDS011;13517;59.320;18.042;2022-11-20T05:57:02;3.80;;;2.38;;
25657;SDS011;13517;59.320;18.042;2022-11-20T05:59:28;4.00;;;2.78;;
25657;SDS011;13517;59.320;18.042;2022-11-20T06:01:53;6.13;;;2.55;;
25657;SDS011;13517;59.320;18.042;2022-11-20T06:04:19;4.78;;;3.20;;
25657;SDS011;13517;59.320;18.042;2022-11-20T06:06:44;7.63;;;3.22;;
25657;SDS011;13517;59.320;18.042;2022-11-20T06:09:10;6.95;;;3.10;;
25657;SDS011;13517;59.320;18.042;2022-11-20T06:11:35;5.95;;;3.03;;
25657;SDS011;13517;59.320;18.042;2022-11-20T06:14:00;6.05;;;3.05;;
25657;SDS011;13517;59.320;18.042;2022-11-20T06:16:26;8.77;;;3.42;;
25657;SDS011;13517;59.320;18.042;2022-11-20T06:18:51;4.97;;;3.03;;
25657;SDS011;13517;59.320;18.042;2022-11-20T06:21:20;7.10;;;3.83;;
25657;SDS011;13517;59.320;18.042;2022-11-20T06:23:47;9.55;;;3.55;;
25657;SDS011;13517;59.320;18.042;2022-11-20T06:26:14;4.55;;;3.20;;
25657;SDS011;13517;59.320;18.042;2022-11-20T06:28:41;4.60;;;3.00;;
25657;SDS011;13517;59.320;18.042;2022-11-20T06:31:07;5.88;;;3.17;;
25657;SDS011;13517;59.320;18.042;2022-11-20T06:33:35;7.05;;;3.17;;
25657;SDS011;13517;59.320;18.042;2022-11-20T06:36:00;9.63;;;3.67;;
25657;SDS011;13517;59.320;18.042;2022-11-20T06:38:27;6.28;;;3.72;;
25657;SDS011;13517;59.320;18.042;2022-11-20T06:40:52;7.38;;;3.28;;
25657;SDS011;13517;59.320;18.042;2022-11-20T06:43:18;4.28;;;2.72;;
25657;SDS011;13517;59.320;18.042;2022-11-20T06:45:43;6.45;;;3.42;;
25657;SDS011;13517;59.320;18.042;2022-11-20T06:48:09;7.18;;;3.65;;
25657;SDS011;13517;59.320;18.042;2022-11-20T06:50:37;4.57;;;2.88;;
25657;SDS011;13517;59.320;18.042;2022-11-20T06:53:03;5.00;;;2.90;;
25657;SDS011;13517;59.320;18.042;2022-11-20T06:55:30;5.40;;;3.08;;
25657;SDS011;13517;59.320;18.042;2022-11-20T06:57:56;4.97;;;2.47;;
25657;SDS011;13517;59.320;18.042;2022-11-20T07:00:22;5.45;;;2.70;;
25657;SDS011;13517;59.320;18.042;2022-11-20T07:02:47;5.82;;;2.63;;
25657;SDS011;13517;59.320;18.042;2022-11-20T07:05:13;2.83;;;2.00;;
25657;SDS011;13517;59.320;18.042;2022-11-20T07:07:38;5.18;;;2.70;;
25657;SDS011;13517;59.320;18.042;2022-11-20T07:10:04;6.00;;;3.00;;
25657;SDS011;13517;59.320;18.042;2022-11-20T07:12:30;4.03;;;2.63;;
25657;SDS011;13517;59.320;18.042;2022-11-20T07:14:55;4.30;;;2.55;;
25657;SDS011;13517;59.320;18.042;2022-11-20T07:17:21;4.38;;;2.75;;
25657;SDS011;13517;59.320;18.042;2022-11-20T07:19:46;3.25;;;2.28;;
25657;SDS011;13517;59.320;18.042;2022-11-20T07:22:12;4.78;;;2.42;;
25657;SDS011;13517;59.320;18.042;2022-11-20T07:24:38;4.40;;;2.50;;
25657;SDS011;13517;59.320;18.042;2022-11-20T07:27:04;3.60;;;2.40;;
25657;SDS011;13517;59.320;18.042;2022-11-20T07:29:29;3.38;;;2.05;;
25657;SDS011;13517;59.320;18.042;2022-11-20T07:31:55;5.80;;;2.25;;
25657;SDS011;13517;59.320;18.042;2022-11-20T07:34:21;7.50;;;3.22;;
25657;SDS011;13517;59.320;18.042;2022-11-20T07:36:47;5.35;;;2.33;;
25657;SDS011;13517;59.320;18.042;2022-11-20T07:39:12;3.88;;;2.22;;
25657;SDS011;13517;59.320;18.042;2022-11-20T07:41:38;3.25;;;2.10;;
25657;SDS011;13517;59.320;18.042;2022-11-20T07:44:03;4.20;;;2.50;;
25657;SDS011;13517;59.320;18.042;2022-11-20T07:46:29;3.55;;;2.38;;
25657;SDS011;13517;59.320;18.042;2022-11-20T07:48:54;6.28;;;1.73;;
25657;SDS011;13517;59.320;18.042;2022-11-20T07:51:20;3.15;;;2.10;;
25657;SDS011;13517;59.320;18.042;2022-11-20T07:53:45;3.72;;;2.40;;
25657;SDS011;13517;59.320;18.042;2022-11-20T07:56:10;2.63;;;2.03;;
25657;SDS011;13517;59.320;18.042;2022-11-20T07:58:36;6.70;;;2.05;;
25657;SDS011;13517;59.320;18.042;2022-11-20T08:01:05;3.53;;;2.00;;
25657;SDS011;13517;59.320;18.042;2022-11-20T08:03:31;2.63;;;1.90;;
25657;SDS011;13517;59.320;18.042;2022-11-20T08:06:00;3.25;;;2.30;;
25657;SDS011;13517;59.320;18.042;2022-11-20T08:08:27;3.83;;;2.00;;
25657;SDS011;13517;59.320;18.042;2022-11-20T08:10:52;2.53;;;1.90;;
25657;SDS011;13517;59.320;18.042;2022-11-20T08:13:38;2.83;;;1.70;;
25657;SDS011;13517;59.320;18.042;2022-11-20T08:16:22;7.70;;;1.95;;
25657;SDS011;13517;59.320;18.042;2022-11-20T08:18:47;2.67;;;1.70;;
25657;SDS011;13517;59.320;18.042;2022-11-20T08:21:12;6.68;;;2.00;;
25657;SDS011;13517;59.320;18.042;2022-11-20T08:23:38;3.40;;;2.08;;
25657;SDS011;13517;59.320;18.042;2022-11-20T08:26:03;3.80;;;1.90;;
25657;SDS011;13517;59.320;18.042;2022-11-20T08:28:29;3.72;;;1.88;;
25657;SDS011;13517;59.320;18.042;2022-11-20T08:30:58;3.63;;;1.45;;
25657;SDS011;13517;59.320;18.042;2022-11-20T08:33:25;5.18;;;2.15;;
25657;SDS011;13517;59.320;18.042;2022-11-20T08:35:50;2.47;;;2.03;;
25657;SDS011;13517;59.320;18.042;2022-11-20T08:38:15;6.93;;;2.10;;
25657;SDS011;13517;59.320;18.042;2022-11-20T08:40:41;2.10;;;1.60;;
25657;SDS011;13517;59.320;18.042;2022-11-20T08:43:26;6.88;;;2.28;;
25657;SDS011;13517;59.320;18.042;2022-11-20T08:45:51;3.17;;;2.05;;
25657;SDS011;13517;59.320;18.042;2022-11-20T08:48:17;2.88;;;1.90;;
25657;SDS011;13517;59.320;18.042;2022-11-20T08:50:42;4.40;;;2.20;;
25657;SDS011;13517;59.320;18.042;2022-11-20T08:53:08;2.97;;;1.48;;
25657;SDS011;13517;59.320;18.042;2022-11-20T08:55:33;3.78;;;2.20;;
25657;SDS011;13517;59.320;18.042;2022-11-20T08:58:03;5.18;;;2.13;;
25657;SDS011;13517;59.320;18.042;2022-11-20T09:00:29;5.35;;;2.25;;
25657;SDS011;13517;59.320;18.042;2022-11-20T09:02:54;4.72;;;2.38;;
25657;SDS011;13517;59.320;18.042;2022-11-20T09:05:20;7.32;;;2.10;;
25657;SDS011;13517;59.320;18.042;2022-11-20T09:07:45;4.03;;;1.90;;
25657;SDS011;13517;59.320;18.042;2022-11-20T09:10:11;5.43;;;2.08;;
25657;SDS011;13517;59.320;18.042;2022-11-20T09:12:36;11.57;;;2.42;;
25657;SDS011;13517;59.320;18.042;2022-11-20T09:15:02;4.25;;;1.80;;
25657;SDS011;13517;59.320;18.042;2022-11-20T09:17:27;3.13;;;1.70;;
25657;SDS011;13517;59.320;18.042;2022-11-20T09:19:52;2.53;;;1.50;;
25657;SDS011;13517;59.320;18.042;2022-11-20T09:22:18;3.83;;;1.95;;
25657;SDS011;13517;59.320;18.042;2022-11-20T09:24:43;2.30;;;1.80;;
25657;SDS011;13517;59.320;18.042;2022-11-20T09:27:09;4.22;;;1.77;;
25657;SDS011;13517;59.320;18.042;2022-11-20T09:29:34;6.88;;;1.85;;
25657;SDS011;13517;59.320;18.042;2022-11-20T09:32:00;3.15;;;1.80;;
25657;SDS011;13517;59.320;18.042;2022-11-20T09:34:25;8.55;;;2.38;;
25657;SDS011;13517;59.320;18.042;2022-11-20T09:36:51;3.33;;;2.33;;
25657;SDS011;13517;59.320;18.042;2022-11-20T09:39:16;6.40;;;2.22;;
25657;SDS011;13517;59.320;18.042;2022-11-20T09:41:55;5.45;;;2.00;;
25657;SDS011;13517;59.320;18.042;2022-11-20T09:53:09;3.53;;;1.80;;
25657;SDS011;13517;59.320;18.042;2022-11-20T09:55:50;4.63;;;2.20;;
25657;SDS011;13517;59.320;18.042;2022-11-20T09:58:59;2.55;;;1.67;;
25657;SDS011;13517;59.320;18.042;2022-11-20T10:01:14;4.68;;;1.90;;
25657;SDS011;13517;59.320;18.042;2022-11-20T10:06:39;2.42;;;1.42;;
25657;SDS011;13517;59.320;18.042;2022-11-20T10:29:34;7.03;;;3.58;;
25657;SDS011;13517;59.320;18.042;2022-11-20T10:32:07;1.98;;;1.27;;
25657;SDS011;13517;59.320;18.042;2022-11-20T10:37:23;9.57;;;1.95;;
25657;SDS011;13517;59.320;18.042;2022-11-20T10:47:45;8.57;;;2.17;;
25657;SDS011;13517;59.320;18.042;2022-11-20T10:50:11;14.60;;;2.30;;
25657;SDS011;13517;59.320;18.042;2022-11-20T10:58:27;5.40;;;1.98;;
25657;SDS011;13517;59.320;18.042;2022-11-20T11:01:04;16.58;;;2.78;;
25657;SDS011;13517;59.320;18.042;2022-11-20T11:03:38;10.30;;;2.53;;
25657;SDS011;13517;59.320;18.042;2022-11-20T11:06:07;3.50;;;1.80;;
25657;SDS011;13517;59.320;18.042;2022-11-20T11:08:40;8.95;;;2.17;;
25657;SDS011;13517;59.320;18.042;2022-11-20T11:11:15;4.95;;;1.92;;
25657;SDS011;13517;59.320;18.042;2022-11-20T11:13:46;16.17;;;2.90;;
25657;SDS011;13517;59.320;18.042;2022-11-20T11:16:22;7.28;;;1.90;;
25657;SDS011;13517;59.320;18.042;2022-11-20T11:18:50;6.40;;;2.15;;
25657;SDS011;13517;59.320;18.042;2022-11-20T11:21:25;4.80;;;1.80;;
25657;SDS011;13517;59.320;18.042;2022-11-20T11:23:59;11.50;;;1.88;;
25657;SDS011;13517;59.320;18.042;2022-11-20T11:26:26;3.33;;;1.85;;
25657;SDS011;13517;59.320;18.042;2022-11-20T11:28:53;7.10;;;2.10;;
25657;SDS011;13517;59.320;18.042;2022-11-20T11:31:27;9.25;;;2.30;;
25657;SDS011;13517;59.320;18.042;2022-11-20T11:37:01;3.30;;;1.50;;
25657;SDS011;13517;59.320;18.042;2022-11-20T11:39:28;7.93;;;2.22;;
25657;SDS011;13517;59.320;18.042;2022-11-20T11:41:56;11.23;;;2.30;;
25657;SDS011;13517;59.320;18.042;2022-11-20T11:47:24;14.05;;;3.22;;
25657;SDS011;13517;59.320;18.042;2022-11-20T11:53:17;4.15;;;2.08;;
25657;SDS011;13517;59.320;18.042;2022-11-20T12:06:30;6.72;;;2.55;;
25657;SDS011;13517;59.320;18.042;2022-11-20T12:09:04;7.80;;;2.00;;
25657;SDS011;13517;59.320;18.042;2022-11-20T12:14:37;4.28;;;2.38;;
25657;SDS011;13517;59.320;18.042;2022-11-20T12:17:07;8.82;;;2.65;;
25657;SDS011;13517;59.320;18.042;2022-11-20T12:19:36;8.05;;;3.22;;
25657;SDS011;13517;59.320;18.042;2022-11-20T12:22:07;9.45;;;2.78;;
25657;SDS011;13517;59.320;18.042;2022-11-20T12:24:59;4.38;;;2.30;;
25657;SDS011;13517;59.320;18.042;2022-11-20T12:30:07;18.27;;;2.70;;
25657;SDS011;13517;59.320;18.042;2022-11-20T12:38:36;9.70;;;2.45;;
25657;SDS011;13517;59.320;18.042;2022-11-20T12:41:15;5.50;;;2.58;;
25657;SDS011;13517;59.320;18.042;2022-11-20T12:44:09;7.45;;;2.80;;
25657;SDS011;13517;59.320;18.042;2022-11-20T12:47:07;9.35;;;3.20;;
25657;SDS011;13517;59.320;18.042;2022-11-20T12:50:14;14.13;;;3.92;;
25657;SDS011;13517;59.320;18.042;2022-11-20T13:01:00;9.27;;;3.50;;
25657;SDS011;13517;59.320;18.042;2022-11-20T13:04:06;13.93;;;4.63;;
25657;SDS011;13517;59.320;18.042;2022-11-20T13:06:50;7.50;;;4.20;;
25657;SDS011;13517;59.320;18.042;2022-11-20T13:09:17;8.35;;;3.63;;
25657;SDS011;13517;59.320;18.042;2022-11-20T13:18:02;13.88;;;4.63;;
25657;SDS011;13517;59.320;18.042;2022-11-20T13:20:30;9.55;;;5.00;;
25657;SDS011;13517;59.320;18.042;2022-11-20T13:22:58;7.40;;;4.38;;
25657;SDS011;13517;59.320;18.042;2022-11-20T13:25:24;7.50;;;3.70;;
25657;SDS011;13517;59.320;18.042;2022-11-20T13:27:54;9.93;;;4.07;;
25657;SDS011;13517;59.320;18.042;2022-11-20T13:30:22;9.80;;;3.33;;
25657;SDS011;13517;59.320;18.042;2022-11-20T13:35:40;11.20;;;3.87;;
25657;SDS011;13517;59.320;18.042;2022-11-20T13:38:12;9.15;;;4.20;;
25657;SDS011;13517;59.320;18.042;2022-11-20T13:40:51;5.53;;;3.08;;
25657;SDS011;13517;59.320;18.042;2022-11-20T13:43:22;6.57;;;3.47;;
25657;SDS011;13517;59.320;18.042;2022-11-20T13:46:06;4.85;;;2.75;;
25657;SDS011;13517;59.320;18.042;2022-11-20T13:48:40;5.07;;;2.72;;
25657;SDS011;13517;59.320;18.042;2022-11-20T13:53:45;3.25;;;1.98;;
25657;SDS011;13517;59.320;18.042;2022-11-20T13:58:59;4.82;;;2.80;;
25657;SDS011;13517;59.320;18.042;2022-11-20T14:01:32;11.38;;;2.70;;
25657;SDS011;13517;59.320;18.042;2022-11-20T14:03:59;5.75;;;3.13;;
25657;SDS011;13517;59.320;18.042;2022-11-20T14:06:33;3.33;;;2.00;;
25657;SDS011;13517;59.320;18.042;2022-11-20T14:09:10;6.57;;;2.63;;
25657;SDS011;13517;59.320;18.042;2022-11-20T14:11:49;4.15;;;2.13;;
25657;SDS011;13517;59.320;18.042;2022-11-20T14:14:24;3.90;;;2.22;;
25657;SDS011;13517;59.320;18.042;2022-11-20T14:16:52;4.07;;;2.28;;
25657;SDS011;13517;59.320;18.042;2022-11-20T14:21:47;4.35;;;2.20;;
25657;SDS011;13517;59.320;18.042;2022-11-20T14:24:14;3.58;;;1.70;;
25657;SDS011;13517;59.320;18.042;2022-11-20T14:26:44;4.60;;;2.22;;
25657;SDS011;13517;59.320;18.042;2022-11-20T14:29:22;5.93;;;1.90;;
25657;SDS011;13517;59.320;18.042;2022-11-20T14:31:53;3.00;;;1.92;;
25657;SDS011;13517;59.320;18.042;2022-11-20T14:34:35;7.05;;;2.38;;
25657;SDS011;13517;59.320;18.042;2022-11-20T14:37:05;2.85;;;2.15;;
25657;SDS011;13517;59.320;18.042;2022-11-20T14:39:36;4.35;;;2.40;;
25657;SDS011;13517;59.320;18.042;2022-11-20T14:42:14;6.70;;;2.08;;
25657;SDS011;13517;59.320;18.042;2022-11-20T14:44:42;4.25;;;1.63;;
25657;SDS011;13517;59.320;18.042;2022-11-20T14:47:08;2.83;;;1.90;;
25657;SDS011;13517;59.320;18.042;2022-11-20T14:49:37;2.85;;;2.00;;
25657;SDS011;13517;59.320;18.042;2022-11-20T14:52:14;3.60;;;2.08;;
25657;SDS011;13517;59.320;18.042;2022-11-20T14:54:59;3.72;;;2.22;;
25657;SDS011;13517;59.320;18.042;2022-11-20T14:57:32;3.53;;;1.80;;
25657;SDS011;13517;59.320;18.042;2022-11-20T15:00:06;4.32;;;2.50;;
25657;SDS011;13517;59.320;18.042;2022-11-20T15:02:44;6.18;;;2.60;;
25657;SDS011;13517;59.320;18.042;2022-11-20T15:05:11;4.70;;;2.72;;
25657;SDS011;13517;59.320;18.042;2022-11-20T15:07:38;4.18;;;2.67;;
25657;SDS011;13517;59.320;18.042;2022-11-20T15:10:11;4.60;;;2.55;;
25657;SDS011;13517;59.320;18.042;2022-11-20T15:12:46;3.55;;;2.17;;
25657;SDS011;13517;59.320;18.042;2022-11-20T15:15:15;4.90;;;2.90;;
25657;SDS011;13517;59.320;18.042;2022-11-20T15:17:44;7.63;;;3.00;;
25657;SDS011;13517;59.320;18.042;2022-11-20T15:20:11;6.15;;;3.58;;
25657;SDS011;13517;59.320;18.042;2022-11-20T15:22:39;9.30;;;3.40;;
25657;SDS011;13517;59.320;18.042;2022-11-20T15:25:14;8.75;;;3.72;;
25657;SDS011;13517;59.320;18.042;2022-11-20T15:27:42;7.28;;;2.92;;
25657;SDS011;13517;59.320;18.042;2022-11-20T15:30:15;4.68;;;3.15;;
25657;SDS011;13517;59.320;18.042;2022-11-20T15:32:42;7.28;;;3.00;;
25657;SDS011;13517;59.320;18.042;2022-11-20T15:35:07;5.05;;;2.90;;
25657;SDS011;13517;59.320;18.042;2022-11-20T15:37:33;11.68;;;3.08;;
25657;SDS011;13517;59.320;18.042;2022-11-20T15:39:59;7.40;;;3.10;;
25657;SDS011;13517;59.320;18.042;2022-11-20T15:42:24;5.93;;;3.80;;
25657;SDS011;13517;59.320;18.042;2022-11-20T15:44:50;5.63;;;2.90;;
25657;SDS011;13517;59.320;18.042;2022-11-20T15:47:15;12.48;;;5.25;;
25657;SDS011;13517;59.320;18.042;2022-11-20T15:49:42;10.75;;;3.72;;
25657;SDS011;13517;59.320;18.042;2022-11-20T15:52:08;12.00;;;3.63;;
25657;SDS011;13517;59.320;18.042;2022-11-20T15:54:34;11.38;;;4.43;;
25657;SDS011;13517;59.320;18.042;2022-11-20T15:56:59;9.68;;;3.58;;
25657;SDS011;13517;59.320;18.042;2022-11-20T15:59:25;6.50;;;3.92;;
25657;SDS011;13517;59.320;18.042;2022-11-20T16:01:51;9.65;;;4.88;;
25657;SDS011;13517;59.320;18.042;2022-11-20T16:04:16;13.43;;;7.05;;
25657;SDS011;13517;59.320;18.042;2022-11-20T16:06:43;8.50;;;4.07;;
25657;SDS011;13517;59.320;18.042;2022-11-20T16:09:08;14.85;;;6.38;;
25657;SDS011;13517;59.320;18.042;2022-11-20T16:11:34;9.70;;;4.45;;
25657;SDS011;13517;59.320;18.042;2022-11-20T16:14:01;13.88;;;5.00;;
25657;SDS011;13517;59.320;18.042;2022-11-20T16:16:47;7.65;;;4.05;;
25657;SDS011;13517;59.320;18.042;2022-11-20T16:19:12;7.30;;;4.18;;
25657;SDS011;13517;59.320;18.042;2022-11-20T16:21:39;7.25;;;3.95;;
25657;SDS011;13517;59.320;18.042;2022-11-20T16:24:06;11.95;;;5.30;;
25657;SDS011;13517;59.320;18.042;2022-11-20T16:26:34;6.80;;;3.70;;
25657;SDS011;13517;59.320;18.042;2022-11-20T16:29:01;8.65;;;4.43;;
25657;SDS011;13517;59.320;18.042;2022-11-20T16:31:28;6.32;;;3.50;;
25657;SDS011;13517;59.320;18.042;2022-11-20T16:33:55;6.90;;;3.53;;
25657;SDS011;13517;59.320;18.042;2022-11-20T16:36:22;13.02;;;4.90;;
25657;SDS011;13517;59.320;18.042;2022-11-20T16:38:56;7.15;;;4.03;;
25657;SDS011;13517;59.320;18.042;2022-11-20T16:41:23;7.18;;;3.50;;